Yealmpton, United Kingdom
Current Conditions -  °F | °C
As of 10:20 PM on Friday 24 Oct 2014 (Local Time) from EGTE Reporting Station
Broken Clouds Broken Clouds  
Wind Chill: 46°   Ceiling: 3500
Heat Index: 46°   Visibility: 6mi
Dew Point: 45°   Wind: 1mph
Humidity: 93%   Direction: NA
Pressure: 30"   Gusts: NA
Location:  50.35°N, 4°W
Report Text: EGTE 242120Z VRB01KT 9999 BKN035 08/07 Q1016
Loading
Personal Weather Stations






























Interactive Weather Map
Tropical Storm Tracking
New forecast layout! Learn more

10-Day Weather Forecast

Advertisements
Track Severe Weather on mobile